createdAt,value
2023-04-19T00:00:02.787Z,0.00
2023-04-19T00:01:02.784Z,0.00
2023-04-19T00:02:02.908Z,0.00
2023-04-19T00:03:02.934Z,0.00
2023-04-19T00:04:02.966Z,0.00
2023-04-19T00:05:03.009Z,0.00
2023-04-19T00:06:02.768Z,0.00
2023-04-19T00:07:02.774Z,0.00
2023-04-19T00:08:02.715Z,0.00
2023-04-19T00:09:02.690Z,0.00
2023-04-19T00:10:02.672Z,0.00
2023-04-19T00:11:02.657Z,0.00
2023-04-19T00:12:02.679Z,0.00
2023-04-19T00:13:02.637Z,0.00
2023-04-19T00:14:02.651Z,0.00
2023-04-19T00:15:02.624Z,0.00
2023-04-19T00:16:02.611Z,0.00
2023-04-19T00:17:02.675Z,0.00
2023-04-19T00:18:02.603Z,0.00
2023-04-19T00:19:02.578Z,0.00
2023-04-19T00:20:02.549Z,0.00
2023-04-19T00:21:02.546Z,0.00
2023-04-19T00:22:02.567Z,0.00
2023-04-19T00:23:02.520Z,0.00
2023-04-19T00:24:02.518Z,0.00
2023-04-19T00:25:02.502Z,0.00
2023-04-19T00:26:02.489Z,0.00
2023-04-19T00:27:02.538Z,0.00
2023-04-19T00:28:02.472Z,0.00
2023-04-19T00:29:02.454Z,0.00
2023-04-19T00:30:02.459Z,0.00
2023-04-19T00:31:02.481Z,0.00
2023-04-19T00:32:02.459Z,0.00
2023-04-19T00:33:02.505Z,0.00
2023-04-19T00:34:02.408Z,0.00
2023-04-19T00:35:02.375Z,0.00
2023-04-19T00:36:02.391Z,0.00
2023-04-19T00:37:02.415Z,0.00
2023-04-19T00:38:02.353Z,0.00
2023-04-19T00:39:02.355Z,0.00
2023-04-19T00:40:02.347Z,0.00
2023-04-19T00:41:02.345Z,0.00
2023-04-19T00:42:02.323Z,0.00
2023-04-19T00:43:02.341Z,0.00
2023-04-19T00:44:02.292Z,0.00
2023-04-19T00:45:02.267Z,0.00
2023-04-19T00:46:02.329Z,0.00
2023-04-19T00:47:02.265Z,0.00
2023-04-19T00:48:02.404Z,0.00
2023-04-19T00:49:02.239Z,0.00
2023-04-19T00:50:02.233Z,0.00
2023-04-19T00:51:02.224Z,0.00
2023-04-19T00:52:02.294Z,0.00
2023-04-19T00:53:02.245Z,0.00
2023-04-19T00:54:02.232Z,0.00
2023-04-19T00:55:02.149Z,0.00
2023-04-19T00:56:02.213Z,0.00
2023-04-19T00:57:02.131Z,0.00
2023-04-19T00:58:02.164Z,0.00
2023-04-19T00:59:02.124Z,0.00
2023-04-19T01:00:02.130Z,0.00
2023-04-19T01:01:02.191Z,0.00
2023-04-19T01:02:02.279Z,0.00
2023-04-19T01:03:02.220Z,0.00
2023-04-19T01:04:02.275Z,0.00
2023-04-19T01:05:02.066Z,0.00
2023-04-19T01:06:02.055Z,0.00
2023-04-19T01:07:02.049Z,0.00
2023-04-19T01:08:02.089Z,0.00
2023-04-19T01:09:02.000Z,0.00
2023-04-19T01:10:02.113Z,0.00
2023-04-19T01:11:01.989Z,0.00
2023-04-19T01:12:01.980Z,0.00
2023-04-19T01:13:02.002Z,0.00
2023-04-19T01:14:01.957Z,0.00
2023-04-19T01:15:02.016Z,0.00
2023-04-19T01:16:01.975Z,0.00
2023-04-19T01:17:01.922Z,0.00
2023-04-19T01:18:01.996Z,0.00
2023-04-19T01:19:01.878Z,0.00
2023-04-19T01:20:01.973Z,0.00
2023-04-19T01:21:01.874Z,0.00
2023-04-19T01:22:01.853Z,0.00
2023-04-19T01:23:01.886Z,0.00
2023-04-19T01:24:01.831Z,0.00
2023-04-19T01:25:01.846Z,0.00
2023-04-19T01:26:01.813Z,0.00
2023-04-19T01:27:01.809Z,0.00
2023-04-19T01:28:01.826Z,0.00
2023-04-19T01:29:01.770Z,0.00
2023-04-19T01:30:01.842Z,0.00
2023-04-19T01:31:01.802Z,0.00
2023-04-19T01:32:01.748Z,0.00
2023-04-19T01:33:01.845Z,0.00
2023-04-19T01:34:01.805Z,0.00
2023-04-19T01:35:01.707Z,0.00
2023-04-19T01:36:01.714Z,0.00
2023-04-19T01:37:01.680Z,0.00
2023-04-19T01:38:01.731Z,0.00
2023-04-19T01:39:01.693Z,0.00
2023-04-19T01:40:01.661Z,0.00
2023-04-19T01:41:01.655Z,0.00
2023-04-19T01:42:01.654Z,0.00
2023-04-19T01:43:01.666Z,0.00
2023-04-19T01:44:01.642Z,0.00
2023-04-19T01:45:01.605Z,0.00
2023-04-19T01:46:01.598Z,0.00
2023-04-19T01:47:01.610Z,0.00
2023-04-19T01:48:01.648Z,0.00
2023-04-19T01:49:01.592Z,0.00
2023-04-19T01:50:01.545Z,0.00
2023-04-19T01:51:01.553Z,0.00
2023-04-19T01:52:01.555Z,0.00
2023-04-19T01:53:01.601Z,0.00
2023-04-19T01:54:01.503Z,0.00
2023-04-19T01:55:01.508Z,0.00
2023-04-19T01:56:01.483Z,0.00
2023-04-19T01:57:01.477Z,0.00
2023-04-19T01:58:01.515Z,0.00
2023-04-19T01:59:01.459Z,0.00
2023-04-19T02:00:01.484Z,0.00
2023-04-19T02:01:01.468Z,0.00
2023-04-19T02:02:01.495Z,0.00
2023-04-19T02:03:01.588Z,0.00
2023-04-19T02:04:01.475Z,0.00
2023-04-19T02:05:01.369Z,0.00
2023-04-19T02:06:01.358Z,0.00
2023-04-19T02:07:01.356Z,0.00
2023-04-19T02:08:01.451Z,0.00
2023-04-19T02:09:01.340Z,0.00
2023-04-19T02:10:01.359Z,0.00
2023-04-19T02:11:01.292Z,0.00
2023-04-19T02:12:01.297Z,0.00
2023-04-19T02:13:01.364Z,0.00
2023-04-19T02:14:01.275Z,0.00
2023-04-19T02:15:01.275Z,0.00
2023-04-19T02:16:01.259Z,0.00
2023-04-19T02:17:01.234Z,0.00
2023-04-19T02:18:01.302Z,0.00
2023-04-19T02:19:01.223Z,0.00
2023-04-19T02:20:01.222Z,0.00
2023-04-19T02:21:01.190Z,0.00
2023-04-19T02:22:01.180Z,0.00
2023-04-19T02:23:01.203Z,0.00
2023-04-19T02:24:01.171Z,0.00
2023-04-19T02:25:01.173Z,0.00
2023-04-19T02:26:01.132Z,0.00
2023-04-19T02:27:01.125Z,0.00
2023-04-19T02:28:01.153Z,0.00
2023-04-19T02:29:01.168Z,0.00
2023-04-19T02:30:01.132Z,0.00
2023-04-19T02:31:01.082Z,0.00
2023-04-19T02:32:01.093Z,0.00
2023-04-19T02:33:01.150Z,0.00
2023-04-19T02:34:01.041Z,0.00
2023-04-19T02:35:01.029Z,0.00
2023-04-19T02:36:01.020Z,0.00
2023-04-19T02:37:01.001Z,0.00
2023-04-19T02:38:01.022Z,0.00
2023-04-19T02:39:00.979Z,0.00
2023-04-19T02:40:00.994Z,0.00
2023-04-19T02:41:00.962Z,0.00
2023-04-19T02:42:00.962Z,0.00
2023-04-19T02:43:00.980Z,0.00
2023-04-19T02:44:00.940Z,0.00
2023-04-19T02:45:00.925Z,0.00
2023-04-19T02:46:00.940Z,0.00
2023-04-19T02:47:00.902Z,0.00
2023-04-19T02:48:00.920Z,0.00
2023-04-19T02:49:00.890Z,0.00
2023-04-19T02:50:00.864Z,0.00
2023-04-19T02:51:00.878Z,0.00
2023-04-19T02:52:00.827Z,0.00
2023-04-19T02:53:00.836Z,0.00
2023-04-19T02:54:00.857Z,0.00
2023-04-19T02:55:00.796Z,0.00
2023-04-19T02:56:00.792Z,0.00
2023-04-19T02:57:00.776Z,0.00
2023-04-19T02:58:00.763Z,0.00
2023-04-19T02:59:00.794Z,0.00
2023-04-19T03:00:00.751Z,0.00
2023-04-19T03:01:00.787Z,0.00
2023-04-19T03:02:00.734Z,0.00
2023-04-19T03:03:00.927Z,0.00
2023-04-19T03:04:00.824Z,0.00
2023-04-19T03:05:00.686Z,0.00
2023-04-19T03:06:00.693Z,0.00
2023-04-19T03:07:00.648Z,0.00
2023-04-19T03:08:00.671Z,0.00
2023-04-19T03:09:00.695Z,0.00
2023-04-19T03:10:00.660Z,0.00
2023-04-19T03:11:00.618Z,0.00
2023-04-19T03:12:00.601Z,0.00
2023-04-19T03:13:00.612Z,0.00
2023-04-19T03:14:00.627Z,0.00
2023-04-19T03:15:00.568Z,0.00
2023-04-19T03:16:00.587Z,0.00
2023-04-19T03:17:00.549Z,0.00
2023-04-19T03:18:00.598Z,0.00
2023-04-19T03:19:00.568Z,0.00
2023-04-19T03:20:00.519Z,0.00
2023-04-19T03:21:00.501Z,0.00
2023-04-19T03:22:00.501Z,4.00
2023-04-19T03:23:00.476Z,4.00
2023-04-19T03:24:00.501Z,0.00
2023-04-19T03:25:00.458Z,4.00
2023-04-19T03:26:00.444Z,4.00
2023-04-19T03:27:00.422Z,0.00
2023-04-19T03:28:00.431Z,4.00
2023-04-19T03:29:00.415Z,8.00
2023-04-19T03:30:00.401Z,8.00
2023-04-19T03:31:00.403Z,4.00
2023-04-19T03:32:00.357Z,12.00
2023-04-19T03:33:00.426Z,12.00
2023-04-19T03:34:00.403Z,8.00
2023-04-19T03:35:00.335Z,12.00
2023-04-19T03:36:00.311Z,16.00
2023-04-19T03:37:00.302Z,20.00
2023-04-19T03:38:00.276Z,20.00
2023-04-19T03:39:00.329Z,28.00
2023-04-19T03:40:00.267Z,32.00
2023-04-19T03:41:00.261Z,32.00
2023-04-19T03:42:00.236Z,44.00
2023-04-19T03:43:00.237Z,48.00
2023-04-19T03:44:00.247Z,56.00
2023-04-19T03:45:00.218Z,64.00
2023-04-19T03:46:00.230Z,80.00
2023-04-19T03:47:00.175Z,92.00
2023-04-19T03:48:02.615Z,104.00
2023-04-19T03:49:00.210Z,124.00
2023-04-19T03:50:00.177Z,140.00
2023-04-19T03:51:00.136Z,160.00
2023-04-19T03:52:00.159Z,184.00
2023-04-19T03:53:00.135Z,208.00
2023-04-19T03:54:00.137Z,232.00
2023-04-19T03:55:00.171Z,256.00
2023-04-19T03:56:00.118Z,288.00
2023-04-19T03:57:00.108Z,324.00
2023-04-19T03:58:00.067Z,360.00
2023-04-19T03:59:00.080Z,384.00
2023-04-19T04:00:00.027Z,416.00
2023-04-19T04:01:00.015Z,444.00
2023-04-19T04:02:00.145Z,484.00
2023-04-19T04:03:00.320Z,520.00
2023-04-19T04:04:02.232Z,564.00
2023-04-19T04:05:00.217Z,612.00
2023-04-19T04:05:59.958Z,664.00
2023-04-19T04:06:59.951Z,716.00
2023-04-19T04:07:59.932Z,768.00
2023-04-19T04:08:59.927Z,824.00
2023-04-19T04:09:59.942Z,880.00
2023-04-19T04:10:59.916Z,936.00
2023-04-19T04:11:59.898Z,996.00
2023-04-19T04:12:59.903Z,1056.00
2023-04-19T04:13:59.877Z,1120.00
2023-04-19T04:14:59.914Z,1180.00
2023-04-19T04:15:59.900Z,1240.00
2023-04-19T04:16:59.847Z,1308.00
2023-04-19T04:17:59.860Z,1364.00
2023-04-19T04:18:59.828Z,1432.00
2023-04-19T04:19:59.818Z,1492.00
2023-04-19T04:20:59.797Z,1556.00
2023-04-19T04:21:59.788Z,1616.00
2023-04-19T04:22:59.772Z,1684.00
2023-04-19T04:23:59.765Z,1744.00
2023-04-19T04:24:59.852Z,1804.00
2023-04-19T04:25:59.754Z,1868.00
2023-04-19T04:26:59.746Z,1932.00
2023-04-19T04:27:59.719Z,1992.00
2023-04-19T04:28:59.747Z,2048.00
2023-04-19T04:29:59.738Z,2108.00
2023-04-19T04:30:59.697Z,2168.00
2023-04-19T04:31:59.758Z,2228.00
2023-04-19T04:32:59.779Z,2284.00
2023-04-19T04:33:59.679Z,2340.00
2023-04-19T04:34:59.724Z,2396.00
2023-04-19T04:35:59.660Z,2448.00
2023-04-19T04:36:59.640Z,2500.00
2023-04-19T04:37:59.626Z,2548.00
2023-04-19T04:38:59.612Z,2644.00
2023-04-19T04:39:59.642Z,2880.00
2023-04-19T04:40:59.632Z,3140.00
2023-04-19T04:41:59.607Z,3292.00
2023-04-19T04:42:59.602Z,3332.00
2023-04-19T04:44:12.193Z,3376.00
2023-04-19T04:45:00.582Z,3420.00
2023-04-19T04:45:59.584Z,3460.00
2023-04-19T04:46:59.513Z,3508.00
2023-04-19T04:47:59.540Z,3544.00
2023-04-19T04:48:59.517Z,3588.00
2023-04-19T04:49:59.531Z,3616.00
2023-04-19T04:50:59.481Z,3624.00
2023-04-19T04:51:59.464Z,3636.00
2023-04-19T04:52:59.469Z,3672.00
2023-04-19T04:53:59.471Z,3708.00
2023-04-19T04:54:59.464Z,3748.00
2023-04-19T04:55:59.428Z,3792.00
2023-04-19T04:56:59.436Z,3824.00
2023-04-19T04:57:59.388Z,3852.00
2023-04-19T04:58:59.383Z,3884.00
2023-04-19T04:59:59.401Z,3920.00
2023-04-19T05:00:59.382Z,3964.00
2023-04-19T05:01:59.423Z,4004.00
2023-04-19T05:02:59.532Z,4040.00
2023-04-19T05:03:59.415Z,4072.00
2023-04-19T05:04:59.383Z,4104.00
2023-04-19T05:05:59.302Z,4140.00
2023-04-19T05:06:59.366Z,4180.00
2023-04-19T05:07:59.344Z,4216.00
2023-04-19T05:08:59.272Z,4252.00
2023-04-19T05:09:59.298Z,4284.00
2023-04-19T05:10:59.287Z,4324.00
2023-04-19T05:11:59.273Z,4356.00
2023-04-19T05:12:59.261Z,4388.00
2023-04-19T05:13:59.233Z,4420.00
2023-04-19T05:14:59.273Z,4444.00
2023-04-19T05:15:59.265Z,4472.00
2023-04-19T05:16:59.197Z,4496.00
2023-04-19T05:17:59.217Z,4524.00
2023-04-19T05:18:59.174Z,4556.00
2023-04-19T05:19:59.190Z,4592.00
2023-04-19T05:20:59.145Z,4616.00
2023-04-19T05:21:59.136Z,4644.00
2023-04-19T05:22:59.161Z,4672.00
2023-04-19T05:23:59.125Z,4692.00
2023-04-19T05:24:59.119Z,4720.00
2023-04-19T05:25:59.057Z,4756.00
2023-04-19T05:26:59.078Z,4788.00
2023-04-19T05:27:59.062Z,4820.00
2023-04-19T05:28:59.046Z,4840.00
2023-04-19T05:29:59.079Z,4860.00
2023-04-19T05:30:59.071Z,4884.00
2023-04-19T05:31:59.058Z,4920.00
2023-04-19T05:32:59.049Z,4960.00
2023-04-19T05:33:58.992Z,5012.00
2023-04-19T05:34:59.026Z,5056.00
2023-04-19T05:35:58.965Z,5124.00
2023-04-19T05:36:58.975Z,5200.00
2023-04-19T05:37:58.997Z,5284.00
2023-04-19T05:38:58.962Z,5352.00
2023-04-19T05:39:58.951Z,5408.00
2023-04-19T05:40:58.908Z,5456.00
2023-04-19T05:41:58.947Z,5516.00
2023-04-19T05:42:58.916Z,5572.00
2023-04-19T05:43:58.904Z,5636.00
2023-04-19T05:44:58.913Z,5688.00
2023-04-19T05:45:58.917Z,5732.00
2023-04-19T05:46:58.868Z,5784.00
2023-04-19T05:47:58.850Z,5824.00
2023-04-19T05:48:58.829Z,5852.00
2023-04-19T05:49:58.878Z,5884.00
2023-04-19T05:50:58.827Z,5900.00
2023-04-19T05:51:58.783Z,5912.00
2023-04-19T05:52:58.760Z,5924.00
2023-04-19T05:53:58.782Z,5948.00
2023-04-19T05:54:58.784Z,5988.00
2023-04-19T05:55:58.726Z,6008.00
2023-04-19T05:56:58.712Z,6040.00
2023-04-19T05:57:58.738Z,6068.00
2023-04-19T05:58:58.703Z,6104.00
2023-04-19T06:00:59.737Z,6160.00
2023-04-19T06:01:58.784Z,6212.00
2023-04-19T06:02:58.782Z,6260.00
2023-04-19T06:03:58.788Z,6284.00
2023-04-19T06:05:02.474Z,6316.00
2023-04-19T06:05:59.706Z,6368.00
2023-04-19T06:06:58.716Z,6416.00
2023-04-19T06:08:02.878Z,6440.00
2023-04-19T06:08:58.615Z,6448.00
2023-04-19T06:09:58.639Z,6460.00
2023-04-19T06:11:02.592Z,6488.00
2023-04-19T06:11:59.581Z,6540.00
2023-04-19T06:12:58.551Z,6604.00
2023-04-19T06:13:58.522Z,6648.00
2023-04-19T06:14:58.546Z,6708.00
2023-04-19T06:15:58.557Z,6784.00
2023-04-19T06:16:58.495Z,6896.00
2023-04-19T06:17:59.960Z,7176.00
2023-04-19T06:18:58.481Z,6988.00
2023-04-19T06:19:58.504Z,6932.00
2023-04-19T06:20:58.448Z,6972.00
2023-04-19T06:21:58.427Z,7028.00
2023-04-19T06:22:58.416Z,7084.00
2023-04-19T06:23:58.424Z,7128.00
2023-04-19T06:24:58.440Z,7140.00
2023-04-19T06:25:58.384Z,7156.00
2023-04-19T06:26:58.392Z,7196.00
2023-04-19T06:27:58.372Z,7224.00
2023-04-19T06:28:58.373Z,7268.00
2023-04-19T06:29:58.391Z,7284.00
2023-04-19T06:30:58.352Z,7324.00
2023-04-19T06:31:58.371Z,7356.00
2023-04-19T06:32:58.390Z,7384.00
2023-04-19T06:33:58.302Z,7420.00
2023-04-19T06:34:58.326Z,7444.00
2023-04-19T06:35:58.294Z,7444.00
2023-04-19T06:36:58.309Z,7456.00
2023-04-19T06:37:58.265Z,7476.00
2023-04-19T06:38:58.255Z,7508.00
2023-04-19T06:39:58.296Z,7548.00
2023-04-19T06:40:58.218Z,7568.00
2023-04-19T06:41:58.207Z,7608.00
2023-04-19T06:42:58.218Z,7664.00
2023-04-19T06:43:58.185Z,7704.00
2023-04-19T06:44:58.220Z,7752.00
2023-04-19T06:45:58.189Z,7820.00
2023-04-19T06:46:58.159Z,7856.00
2023-04-19T06:47:58.159Z,7912.00
2023-04-19T06:48:58.166Z,7960.00
2023-04-19T06:49:58.146Z,8004.00
2023-04-19T06:50:58.122Z,8048.00
2023-04-19T06:51:58.087Z,8092.00
2023-04-19T06:52:58.066Z,8140.00
2023-04-19T06:53:58.056Z,8216.00
2023-04-19T06:54:58.315Z,8272.00
2023-04-19T06:55:58.052Z,8308.00
2023-04-19T06:56:58.053Z,8320.00
2023-04-19T06:57:58.036Z,8360.00
2023-04-19T06:58:58.035Z,8396.00
2023-04-19T06:59:58.026Z,8424.00
2023-04-19T07:00:58.052Z,8448.00
2023-04-19T07:01:58.088Z,8464.00
2023-04-19T07:02:58.089Z,8504.00
2023-04-19T07:03:58.080Z,8504.00
2023-04-19T07:04:57.995Z,8388.00
2023-04-19T07:05:57.944Z,8492.00
2023-04-19T07:06:57.929Z,8504.00
2023-04-19T07:07:58.030Z,8584.00
2023-04-19T07:08:57.933Z,8716.00
2023-04-19T07:09:57.943Z,8756.00
2023-04-19T07:10:57.897Z,8748.00
2023-04-19T07:11:57.934Z,8820.00
2023-04-19T07:12:57.880Z,8880.00
2023-04-19T07:13:57.991Z,8920.00
2023-04-19T07:14:57.891Z,8952.00
2023-04-19T07:15:57.880Z,8996.00
2023-04-19T07:16:57.802Z,9132.00
2023-04-19T07:17:57.832Z,9160.00
2023-04-19T07:18:57.812Z,9200.00
2023-04-19T07:19:57.756Z,9216.00
2023-04-19T07:20:57.809Z,9232.00
2023-04-19T07:21:57.784Z,9280.00
2023-04-19T07:22:57.755Z,9344.00
2023-04-19T07:23:57.722Z,9356.00
2023-04-19T07:24:57.729Z,9412.00
2023-04-19T07:25:57.776Z,9476.00
2023-04-19T07:26:57.679Z,9540.00
2023-04-19T07:27:57.680Z,9628.00
2023-04-19T07:28:57.670Z,9708.00
2023-04-19T07:29:57.693Z,9960.00
2023-04-19T07:30:57.789Z,10032.00
2023-04-19T07:31:57.685Z,10240.00
2023-04-19T07:32:57.674Z,10784.00
2023-04-19T07:33:57.629Z,10740.00
2023-04-19T07:34:57.639Z,11220.00
2023-04-19T07:35:57.597Z,11836.00
2023-04-19T07:36:57.585Z,12892.00
2023-04-19T07:37:57.580Z,12872.00
2023-04-19T07:38:57.558Z,13884.00
2023-04-19T07:39:57.579Z,14776.00
2023-04-19T07:40:57.519Z,14892.00
2023-04-19T07:41:57.519Z,16012.00
2023-04-19T07:42:57.511Z,14288.00
2023-04-19T07:43:57.499Z,14200.00
2023-04-19T07:44:57.490Z,13400.00
2023-04-19T07:45:57.543Z,13176.00
2023-04-19T07:46:57.600Z,13520.00
2023-04-19T07:47:57.504Z,14056.00
2023-04-19T07:48:57.431Z,14420.00
2023-04-19T07:49:57.460Z,15100.00
2023-04-19T07:50:58.266Z,15640.00
2023-04-19T07:51:57.406Z,16616.00
2023-04-19T07:52:57.395Z,17820.00
2023-04-19T07:53:57.386Z,14360.00
2023-04-19T07:54:57.424Z,16084.00
2023-04-19T07:55:57.376Z,20640.00
2023-04-19T07:56:57.338Z,20992.00
2023-04-19T07:57:57.322Z,20192.00
2023-04-19T07:59:07.740Z,17612.00
2023-04-19T07:59:58.342Z,19968.00
2023-04-19T08:00:57.316Z,15888.00
2023-04-19T08:01:57.338Z,16252.00
2023-04-19T08:02:57.531Z,18012.00
2023-04-19T08:03:57.430Z,24864.00
2023-04-19T08:04:57.366Z,33568.00
2023-04-19T08:05:57.257Z,26880.00
2023-04-19T08:06:57.242Z,27232.00
2023-04-19T08:07:57.260Z,36160.00
2023-04-19T08:08:57.204Z,25344.00
2023-04-19T08:09:57.308Z,19520.00
2023-04-19T08:10:57.178Z,20384.00
2023-04-19T08:11:57.197Z,21664.00
2023-04-19T08:13:04.525Z,22560.00
2023-04-19T08:14:06.957Z,21600.00
2023-04-19T08:15:06.722Z,42880.00
2023-04-19T08:17:22.446Z,24576.00
2023-04-19T08:17:58.208Z,23200.00
2023-04-19T08:18:57.111Z,20544.00
2023-04-19T08:19:57.081Z,18752.00
2023-04-19T08:20:57.093Z,19904.00
2023-04-19T08:21:57.078Z,21248.00
2023-04-19T08:22:59.077Z,22880.00
2023-04-19T08:23:57.033Z,24128.00
2023-04-19T08:24:57.027Z,24320.00
2023-04-19T08:25:57.052Z,25984.00
2023-04-19T08:26:59.426Z,26240.00
2023-04-19T08:27:56.992Z,32992.00
2023-04-19T08:28:57.002Z,23072.00
2023-04-19T08:29:56.967Z,28416.00
2023-04-19T08:30:57.016Z,29536.00
2023-04-19T08:31:56.989Z,31232.00
2023-04-19T08:32:57.457Z,26496.00
2023-04-19T08:33:56.943Z,26528.00
2023-04-19T08:34:56.917Z,26016.00
2023-04-19T08:35:56.927Z,28192.00
2023-04-19T08:37:03.813Z,26176.00
2023-04-19T08:37:57.882Z,22528.00
2023-04-19T08:39:24.871Z,25184.00
2023-04-19T08:39:57.852Z,30848.00
2023-04-19T08:40:56.860Z,40416.00
2023-04-19T08:42:06.997Z,24960.00
2023-04-19T08:42:57.778Z,31104.00
2023-04-19T08:43:56.808Z,35840.00
2023-04-19T08:45:13.598Z,20480.00
2023-04-19T08:45:57.812Z,17200.00
2023-04-19T08:46:56.759Z,17440.00
2023-04-19T08:48:00.780Z,19264.00
2023-04-19T08:48:56.777Z,18720.00
2023-04-19T08:50:07.081Z,18560.00
2023-04-19T08:51:04.929Z,18220.00
2023-04-19T08:51:57.727Z,19776.00
2023-04-19T08:53:00.844Z,23264.00
2023-04-19T08:53:57.695Z,20576.00
2023-04-19T08:54:56.678Z,19072.00
2023-04-19T08:56:10.596Z,19328.00
2023-04-19T08:56:57.650Z,19520.00
2023-04-19T08:57:56.673Z,16712.00
2023-04-19T08:59:11.574Z,17040.00
2023-04-19T08:59:57.605Z,18148.00
2023-04-19T09:00:56.648Z,17148.00
2023-04-19T09:01:56.723Z,15808.00
2023-04-19T09:02:56.899Z,15600.00
2023-04-19T09:04:07.138Z,16276.00
2023-04-19T09:04:57.801Z,16100.00
2023-04-19T09:05:56.737Z,15584.00
2023-04-19T09:06:56.552Z,15968.00
2023-04-19T09:07:56.560Z,25184.00
2023-04-19T09:08:56.517Z,21344.00
2023-04-19T09:10:02.871Z,24448.00
2023-04-19T09:10:57.534Z,64192.00
2023-04-19T09:11:56.504Z,27776.00
2023-04-19T09:12:56.464Z,20704.00
2023-04-19T09:13:56.454Z,41600.00
2023-04-19T09:15:01.991Z,43552.00
2023-04-19T09:15:57.512Z,61056.00
2023-04-19T09:16:56.441Z,61056.00
2023-04-19T09:17:56.460Z,56160.00
2023-04-19T09:19:08.249Z,62240.00
2023-04-19T09:19:57.393Z,59872.00
2023-04-19T09:20:56.404Z,34624.00
2023-04-19T09:21:56.559Z,61984.00
2023-04-19T09:22:56.350Z,36480.00
2023-04-19T09:23:56.356Z,64832.00
2023-04-19T09:26:19.366Z,28416.00
2023-04-19T09:26:57.299Z,24800.00
2023-04-19T09:27:56.295Z,35232.00
2023-04-19T09:28:56.298Z,25248.00
2023-04-19T09:29:56.273Z,38464.00
2023-04-19T09:31:06.764Z,22464.00
2023-04-19T09:31:57.363Z,23168.00
2023-04-19T09:32:56.307Z,23648.00
2023-04-19T09:33:56.220Z,26336.00
2023-04-19T09:34:56.232Z,70496.00
2023-04-19T09:35:56.222Z,29920.00
2023-04-19T09:37:04.713Z,32832.00
2023-04-19T09:38:04.774Z,32864.00
2023-04-19T09:38:57.158Z,33280.00
2023-04-19T09:39:56.160Z,34112.00
2023-04-19T09:40:56.184Z,43808.00
2023-04-19T09:41:56.156Z,35968.00
2023-04-19T09:44:08.943Z,33952.00
2023-04-19T09:45:27.710Z,34240.00
2023-04-19T09:45:57.103Z,36800.00
2023-04-19T09:46:56.126Z,52768.00
2023-04-19T09:47:56.112Z,55072.00
2023-04-19T09:48:56.084Z,44032.00
2023-04-19T09:49:56.047Z,46624.00
2023-04-19T09:51:00.913Z,48832.00
2023-04-19T09:51:57.038Z,47968.00
2023-04-19T09:52:55.997Z,40352.00
2023-04-19T09:53:56.015Z,37504.00
2023-04-19T09:54:56.002Z,38880.00
2023-04-19T09:56:01.546Z,40320.00
2023-04-19T09:56:58.395Z,37280.00
2023-04-19T09:57:55.948Z,29504.00
2023-04-19T09:59:01.603Z,25024.00
2023-04-19T09:59:56.918Z,23232.00
2023-04-19T10:01:06.640Z,22784.00
2023-04-19T10:01:56.973Z,21728.00
2023-04-19T10:02:56.070Z,20128.00
2023-04-19T10:03:56.221Z,17888.00
2023-04-19T10:05:15.800Z,16520.00
2023-04-19T10:05:57.349Z,18208.00
2023-04-19T10:07:19.489Z,19744.00
2023-04-19T10:07:59.876Z,21376.00
2023-04-19T10:08:55.842Z,24128.00
2023-04-19T10:09:59.894Z,27520.00
2023-04-19T10:10:56.819Z,29888.00
2023-04-19T10:12:03.148Z,31232.00
2023-04-19T10:13:55.757Z,34048.00
2023-04-19T10:14:55.745Z,32096.00
2023-04-19T10:16:01.841Z,29408.00
2023-04-19T10:16:56.783Z,27456.00
2023-04-19T10:17:55.785Z,26944.00
2023-04-19T10:18:55.717Z,27936.00
2023-04-19T10:19:55.715Z,30144.00
2023-04-19T10:20:55.700Z,33120.00
2023-04-19T10:21:55.719Z,35424.00
2023-04-19T10:22:55.695Z,36992.00
2023-04-19T10:23:55.651Z,37792.00
2023-04-19T10:24:55.652Z,36416.00
2023-04-19T10:25:55.631Z,34272.00
2023-04-19T10:26:55.675Z,33152.00
2023-04-19T10:27:55.670Z,32448.00
2023-04-19T10:28:55.594Z,31904.00
2023-04-19T10:29:55.602Z,30144.00
2023-04-19T10:30:55.594Z,31232.00
2023-04-19T10:31:55.704Z,32352.00
2023-04-19T10:32:55.587Z,34272.00
2023-04-19T10:33:55.574Z,46784.00
2023-04-19T10:34:55.538Z,36960.00
2023-04-19T10:35:55.511Z,36000.00
2023-04-19T10:36:55.537Z,44096.00
2023-04-19T10:37:55.501Z,47136.00
2023-04-19T10:38:55.543Z,63392.00
2023-04-19T10:39:55.506Z,34624.00
2023-04-19T10:40:55.452Z,33440.00
2023-04-19T10:41:55.473Z,53472.00
2023-04-19T10:42:55.391Z,42464.00
2023-04-19T10:43:55.443Z,44608.00
2023-04-19T10:44:55.400Z,35072.00
2023-04-19T10:45:55.450Z,35072.00
2023-04-19T10:46:55.415Z,36288.00
2023-04-19T10:47:55.433Z,37952.00
2023-04-19T10:48:55.390Z,35104.00
2023-04-19T10:49:55.349Z,31456.00
2023-04-19T10:50:55.328Z,30688.00
2023-04-19T10:51:55.377Z,29376.00
2023-04-19T10:52:55.307Z,27040.00
2023-04-19T10:53:55.355Z,26976.00
2023-04-19T10:54:55.275Z,27488.00
2023-04-19T10:55:55.280Z,26048.00
2023-04-19T10:56:55.327Z,26016.00
2023-04-19T10:57:55.244Z,29312.00
2023-04-19T10:58:55.233Z,33632.00
2023-04-19T10:59:55.220Z,68416.00
2023-04-19T11:00:55.224Z,69248.00
2023-04-19T11:01:55.375Z,67744.00
2023-04-19T11:02:55.315Z,70400.00
2023-04-19T11:03:55.516Z,73344.00
2023-04-19T11:04:55.164Z,73184.00
2023-04-19T11:05:55.172Z,69312.00
2023-04-19T11:06:55.190Z,61920.00
2023-04-19T11:07:55.187Z,30144.00
2023-04-19T11:08:55.129Z,23456.00
2023-04-19T11:09:55.133Z,21632.00
2023-04-19T11:10:55.100Z,20352.00
2023-04-19T11:11:55.107Z,20128.00
2023-04-19T11:12:55.057Z,21472.00
2023-04-19T11:13:55.090Z,23456.00
2023-04-19T11:14:55.067Z,25312.00
2023-04-19T11:15:55.076Z,26720.00
2023-04-19T11:16:55.107Z,28480.00
2023-04-19T11:18:04.682Z,29792.00
2023-04-19T11:18:56.010Z,30912.00
2023-04-19T11:19:55.011Z,31744.00
2023-04-19T11:20:54.981Z,33920.00
2023-04-19T11:21:55.006Z,36448.00
2023-04-19T11:22:55.000Z,45728.00
2023-04-19T11:23:54.958Z,36736.00
2023-04-19T11:24:54.963Z,28512.00
2023-04-19T11:25:54.944Z,24416.00
2023-04-19T11:26:55.677Z,21600.00
2023-04-19T11:27:54.908Z,20352.00
2023-04-19T11:28:54.914Z,20256.00
2023-04-19T11:29:54.940Z,20416.00
2023-04-19T11:30:54.898Z,20224.00
2023-04-19T11:31:54.909Z,19328.00
2023-04-19T11:32:54.887Z,18400.00
2023-04-19T11:33:54.854Z,18752.00
2023-04-19T11:34:54.842Z,20320.00
2023-04-19T11:35:54.814Z,22368.00
2023-04-19T11:36:54.821Z,23520.00
2023-04-19T11:37:54.860Z,24960.00
2023-04-19T11:38:54.774Z,26048.00
2023-04-19T11:39:54.760Z,26400.00
2023-04-19T11:40:54.724Z,28352.00
2023-04-19T11:41:54.778Z,30816.00
2023-04-19T11:42:54.777Z,32320.00
2023-04-19T11:43:54.757Z,32224.00
2023-04-19T11:44:54.700Z,29440.00
2023-04-19T11:45:54.741Z,27424.00
2023-04-19T11:46:54.756Z,26560.00
2023-04-19T11:47:54.757Z,25696.00
2023-04-19T11:48:54.753Z,24736.00
2023-04-19T11:49:54.683Z,23264.00
2023-04-19T11:50:54.667Z,19776.00
2023-04-19T11:51:54.651Z,19744.00
2023-04-19T11:52:54.683Z,22720.00
2023-04-19T11:53:54.639Z,26720.00
2023-04-19T11:54:54.577Z,28352.00
2023-04-19T11:55:54.667Z,27840.00
2023-04-19T11:56:54.576Z,25344.00
2023-04-19T11:57:54.602Z,21088.00
2023-04-19T11:58:54.567Z,17536.00
2023-04-19T11:59:54.540Z,14748.00
2023-04-19T12:00:54.561Z,11936.00
2023-04-19T12:01:54.511Z,9284.00
2023-04-19T12:02:54.690Z,7632.00
2023-04-19T12:03:54.672Z,6680.00
2023-04-19T12:04:54.712Z,6040.00
2023-04-19T12:05:54.570Z,6048.00
2023-04-19T12:06:54.476Z,6232.00
2023-04-19T12:07:54.481Z,6888.00
2023-04-19T12:08:54.420Z,8352.00
2023-04-19T12:09:54.400Z,10160.00
2023-04-19T12:10:54.414Z,11332.00
2023-04-19T12:11:54.410Z,12168.00
2023-04-19T12:12:54.452Z,12568.00
2023-04-19T12:13:54.371Z,12588.00
2023-04-19T12:14:54.367Z,12408.00
2023-04-19T12:15:54.352Z,12264.00
2023-04-19T12:16:54.427Z,11916.00
2023-04-19T12:17:57.451Z,11384.00
2023-04-19T12:18:54.329Z,10864.00
2023-04-19T12:19:54.282Z,10168.00
2023-04-19T12:20:55.250Z,9456.00
2023-04-19T12:21:54.278Z,8632.00
2023-04-19T12:22:54.274Z,7816.00